Time;durP1;ratioP1;P1;durP2;ratioP2;P2;SDS_P1;SDS_P2;PMS_P1;PMS_P2;Temp;Humidity;BMP_temperature;BMP_pressure;BME280_temperature;BME280_humidity;BME280_pressure;Samples;Min_cycle;Max_cycle;Signal;HPM_P1;HPM_P2
2022/03/05 00:00:26;;;;;;;0.00;0.00;;;;;24.90;100323.00;;;;4842795;29;20060;-82
2022/03/05 00:02:56;;;;;;;0.00;0.00;;;;;24.90;100326.00;;;;4860779;29;20497;-79
2022/03/05 00:05:26;;;;;;;0.00;0.00;;;;;25.00;100319.00;;;;4861049;29;20049;-83
2022/03/05 00:07:56;;;;;;;0.00;0.00;;;;;25.10;100319.00;;;;4842074;29;20045;-79
2022/03/05 00:10:25;;;;;;;0.43;0.43;;;;;25.10;100339.00;;;;4858106;29;20053;-80
2022/03/05 00:12:55;;;;;;;0.00;0.00;;;;;25.10;100340.00;;;;4857051;29;20050;-78
2022/03/05 00:15:24;;;;;;;0.00;0.00;;;;;25.10;100339.00;;;;4840555;29;20051;-81
2022/03/05 00:17:56;;;;;;;0.00;0.00;;;;;25.00;100332.00;;;;4856298;29;20576;-82
2022/03/05 00:20:27;;;;;;;0.00;0.00;;;;;24.90;100333.00;;;;4857110;29;20053;-80
2022/03/05 00:22:56;;;;;;;0.00;0.00;;;;;24.80;100323.00;;;;4856288;29;20080;-79
2022/03/05 00:25:26;;;;;;;0.00;0.00;;;;;24.70;100324.00;;;;4855890;29;20034;-79
2022/03/05 00:28:01;;;;;;;0.00;0.00;;;;;24.70;100324.00;;;;4856045;29;20045;-79
2022/03/05 00:30:31;;;;;;;0.00;0.00;;;;;24.60;100322.00;;;;4856046;29;20037;-80
2022/03/05 00:33:00;;;;;;;0.00;0.00;;;;;24.60;100318.00;;;;4855260;29;20052;-79
2022/03/05 00:35:30;;;;;;;0.00;0.00;;;;;24.50;100322.00;;;;4855005;29;20057;-82
2022/03/05 00:38:00;;;;;;;0.00;0.00;;;;;24.50;100320.00;;;;4852372;29;20069;-80
2022/03/05 00:40:30;;;;;;;0.00;0.00;;;;;24.50;100301.00;;;;4850306;29;20049;-81
2022/03/05 00:42:59;;;;;;;0.00;0.00;;;;;24.50;100312.00;;;;4835180;29;20087;-81
2022/03/05 00:45:28;;;;;;;0.00;0.00;;;;;24.60;100315.00;;;;4854167;29;20069;-80
2022/03/05 00:47:58;;;;;;;0.00;0.00;;;;;24.60;100295.00;;;;4851574;29;20402;-78
2022/03/05 00:50:27;;;;;;;0.00;0.00;;;;;24.40;100293.00;;;;4853897;29;20065;-82
2022/03/05 00:52:57;;;;;;;0.00;0.00;;;;;24.30;100294.00;;;;4851707;29;20528;-78
2022/03/05 00:55:26;;;;;;;0.00;0.00;;;;;24.20;100293.00;;;;4836955;29;20502;-80
2022/03/05 00:57:56;;;;;;;0.00;0.00;;;;;24.10;100285.00;;;;4855121;29;20049;-80
2022/03/05 01:00:26;;;;;;;0.00;0.00;;;;;24.00;100293.00;;;;4855334;29;20660;-79
2022/03/05 01:02:55;;;;;;;0.00;0.00;;;;;23.90;100290.00;;;;4854449;29;20876;-80
2022/03/05 01:05:25;;;;;;;0.00;0.00;;;;;23.90;100292.00;;;;4855208;29;20128;-82
2022/03/05 01:07:55;;;;;;;0.00;0.00;;;;;23.80;100281.00;;;;4854630;29;20049;-79
2022/03/05 01:10:25;;;;;;;0.00;0.00;;;;;23.80;100289.00;;;;4855325;29;20059;-81
2022/03/05 01:12:55;;;;;;;0.00;0.00;;;;;23.70;100291.00;;;;4853929;29;20094;-78
2022/03/05 01:15:25;;;;;;;0.00;0.00;;;;;23.70;100287.00;;;;4854812;29;20053;-80
2022/03/05 01:17:54;;;;;;;0.00;0.00;;;;;23.60;100301.00;;;;4853136;29;20050;-81
2022/03/05 01:20:25;;;;;;;0.00;0.00;;;;;23.60;100281.00;;;;4837556;29;20072;-79
2022/03/05 01:22:55;;;;;;;1.75;0.45;;;;;23.50;100286.00;;;;4853858;29;20417;-79
2022/03/05 01:25:25;;;;;;;0.00;0.00;;;;;23.70;100282.00;;;;4853735;29;20116;-80
2022/03/05 01:27:54;;;;;;;0.00;0.00;;;;;23.70;100270.00;;;;4853866;29;20060;-81
2022/03/05 01:30:24;;;;;;;0.00;0.00;;;;;23.60;100270.00;;;;4854191;29;20049;-82
2022/03/05 01:32:53;;;;;;;0.00;0.00;;;;;23.60;100267.00;;;;4852784;29;20068;-78
2022/03/05 01:35:22;;;;;;;0.00;0.00;;;;;23.50;100282.00;;;;4855137;29;20054;-81
2022/03/05 01:37:52;;;;;;;0.00;0.00;;;;;23.50;100283.00;;;;4854966;29;20433;-79
2022/03/05 01:40:22;;;;;;;0.00;0.00;;;;;23.50;100279.00;;;;4853639;29;20038;-82
2022/03/05 01:42:52;;;;;;;0.00;0.00;;;;;23.50;100275.00;;;;4838243;29;20057;-82
2022/03/05 01:45:23;;;;;;;;;;;;;23.50;100290.00;;;;4854675;29;20109;-81
2022/03/05 01:47:52;;;;;;;0.00;0.00;;;;;23.40;100284.00;;;;4855068;29;20324;-80
2022/03/05 01:50:22;;;;;;;0.00;0.00;;;;;23.30;100275.00;;;;4854631;29;20041;-80
2022/03/05 01:52:52;;;;;;;0.57;0.57;;;;;23.20;100276.00;;;;4855330;29;20062;-80
2022/03/05 01:55:22;;;;;;;0.00;0.00;;;;;23.20;100269.00;;;;4855090;29;20049;-82
2022/03/05 01:57:52;;;;;;;0.00;0.00;;;;;23.20;100266.00;;;;4854421;29;20046;-79
2022/03/05 02:00:22;;;;;;;0.00;0.00;;;;;23.10;100249.00;;;;4854419;29;20049;-81
2022/03/05 02:02:52;;;;;;;0.15;0.15;;;;;23.10;100266.00;;;;4854194;29;20045;-79
2022/03/05 02:05:24;;;;;;;;;;;;;23.00;100259.00;;;;4854687;29;20056;-83
2022/03/05 02:07:53;;;;;;;0.00;0.00;;;;;23.00;100251.00;;;;4837586;29;20338;-80
2022/03/05 02:10:29;;;;;;;0.00;0.00;;;;;23.10;100243.00;;;;4854055;29;20627;-83
2022/03/05 02:12:59;;;;;;;0.00;0.00;;;;;23.00;100254.00;;;;4853890;29;20042;-79
2022/03/05 02:15:30;;;;;;;0.00;0.00;;;;;22.90;100258.00;;;;4857750;29;20057;-82
2022/03/05 02:17:59;;;;;;;0.00;0.00;;;;;23.00;100247.00;;;;4858291;29;21285;-80
2022/03/05 02:20:29;;;;;;;0.20;0.20;;;;;22.90;100235.00;;;;4857968;29;20576;-80
2022/03/05 02:22:58;;;;;;;0.00;0.00;;;;;22.90;100250.00;;;;4857374;29;20128;-78
2022/03/05 02:25:28;;;;;;;0.00;0.00;;;;;22.70;100250.00;;;;4858469;29;20525;-82
2022/03/05 02:27:58;;;;;;;0.20;0.17;;;;;22.70;100238.00;;;;4858204;29;20081;-81
2022/03/05 02:30:28;;;;;;;0.52;0.35;;;;;22.70;100237.00;;;;4858200;29;20049;-80
2022/03/05 02:32:58;;;;;;;0.17;0.10;;;;;22.70;100230.00;;;;4858197;29;20440;-80
2022/03/05 02:35:27;;;;;;;0.00;0.00;;;;;22.70;100234.00;;;;4857598;29;20057;-80
2022/03/05 02:37:57;;;;;;;0.00;0.00;;;;;22.70;100233.00;;;;4841709;29;20560;-79
2022/03/05 02:40:26;;;;;;;0.00;0.00;;;;;22.70;100245.00;;;;4857585;29;20060;-82
2022/03/05 02:42:55;;;;;;;0.00;0.00;;;;;22.70;100232.00;;;;4857773;29;20105;-79
2022/03/05 02:45:25;;;;;;;0.00;0.00;;;;;22.70;100236.00;;;;4841053;29;20517;-81
2022/03/05 02:47:55;;;;;;;0.17;0.17;;;;;22.70;100228.00;;;;4857612;29;20063;-80
2022/03/05 02:50:24;;;;;;;0.00;0.00;;;;;22.70;100239.00;;;;4840886;29;20425;-79
2022/03/05 02:52:54;;;;;;;0.00;0.00;;;;;22.70;100255.00;;;;4841276;29;20052;-81
2022/03/05 02:55:23;;;;;;;0.00;0.00;;;;;22.60;100247.00;;;;4857880;29;20417;-81
2022/03/05 02:57:53;;;;;;;0.00;0.00;;;;;22.50;100254.00;;;;4857402;29;20057;-82
2022/03/05 03:00:22;;;;;;;0.15;0.10;;;;;22.50;100235.00;;;;4857008;29;20053;-80
2022/03/05 03:02:52;;;;;;;0.00;0.00;;;;;22.60;100252.00;;;;4857596;29;20101;-79
2022/03/05 03:05:22;;;;;;;0.00;0.00;;;;;22.40;100256.00;;;;4857552;29;20056;-80
2022/03/05 03:07:52;;;;;;;0.00;0.00;;;;;22.50;100262.00;;;;4857589;29;20049;-82
2022/03/05 03:10:21;;;;;;;0.00;0.00;;;;;22.60;100265.00;;;;4856553;29;20057;-83
2022/03/05 03:12:51;;;;;;;0.00;0.00;;;;;22.60;100279.00;;;;4856773;29;20517;-80
2022/03/05 03:15:21;;;;;;;0.00;0.00;;;;;22.60;100269.00;;;;4857010;29;20057;-80
2022/03/05 03:17:52;;;;;;;0.00;0.00;;;;;22.60;100279.00;;;;4840885;29;20508;-80
2022/03/05 03:20:24;;;;;;;0.00;0.00;;;;;22.50;100272.00;;;;4857286;29;20058;-81
2022/03/05 03:22:54;;;;;;;0.00;0.00;;;;;22.50;100285.00;;;;4856816;29;20482;-82
2022/03/05 03:25:24;;;;;;;0.30;0.30;;;;;22.40;100271.00;;;;4856800;29;20053;-80
2022/03/05 03:27:53;;;;;;;0.00;0.00;;;;;22.30;100280.00;;;;4857618;29;20666;-83
2022/03/05 03:30:23;;;;;;;0.28;0.28;;;;;22.20;100283.00;;;;4840838;29;20113;-81
2022/03/05 03:32:53;;;;;;;0.00;0.00;;;;;22.10;100272.00;;;;4856534;29;20045;-80
2022/03/05 03:35:23;;;;;;;0.00;0.00;;;;;22.20;100275.00;;;;4839961;29;20532;-78
2022/03/05 03:37:53;;;;;;;;;;;;;22.10;100285.00;;;;4857051;29;20808;-79
2022/03/05 03:40:24;;;;;;;0.00;0.00;;;;;22.20;100288.00;;;;4856467;29;19927;-82
2022/03/05 03:42:53;;;;;;;0.03;0.03;;;;;22.20;100288.00;;;;4857026;29;20061;-79
2022/03/05 03:45:23;;;;;;;0.00;0.00;;;;;22.20;100272.00;;;;4856539;29;20045;-79
2022/03/05 03:47:53;;;;;;;0.13;0.13;;;;;22.20;100271.00;;;;4856740;29;20052;-81
2022/03/05 03:50:23;;;;;;;0.00;0.00;;;;;22.20;100262.00;;;;4856386;29;20054;-82
2022/03/05 03:52:54;;;;;;;0.10;0.10;;;;;22.10;100266.00;;;;4857383;29;20086;-79
2022/03/05 03:55:24;;;;;;;0.15;0.15;;;;;22.10;100269.00;;;;4840314;29;20496;-79
2022/03/05 03:57:54;;;;;;;0.17;0.17;;;;;22.00;100248.00;;;;4839725;29;20049;-80
2022/03/05 04:00:24;;;;;;;0.13;0.13;;;;;22.00;100258.00;;;;4856379;29;20061;-81
2022/03/05 04:02:53;;;;;;;0.00;0.00;;;;;22.00;100257.00;;;;4855932;29;20057;-79
2022/03/05 04:05:23;;;;;;;0.00;0.00;;;;;22.00;100262.00;;;;4856036;29;20058;-78
2022/03/05 04:10:40;;;;;;;0.00;0.00;;;;;22.00;100253.00;;;;4856586;29;20748;-80
2022/03/05 04:13:10;;;;;;;0.00;0.00;;;;;22.10;100257.00;;;;4855994;29;20433;-79
2022/03/05 04:15:39;;;;;;;0.00;0.00;;;;;22.10;100250.00;;;;4856202;29;20048;-78
2022/03/05 04:18:08;;;;;;;0.00;0.00;;;;;22.10;100269.00;;;;4856054;29;20053;-81
2022/03/05 04:20:38;;;;;;;0.00;0.00;;;;;22.10;100251.00;;;;4856165;29;20437;-81
2022/03/05 04:23:07;;;;;;;0.00;0.00;;;;;22.10;100255.00;;;;4855685;29;20056;-79
2022/03/05 04:25:37;;;;;;;0.10;0.10;;;;;22.10;100257.00;;;;4855980;29;20140;-80
2022/03/05 04:28:06;;;;;;;0.00;0.00;;;;;22.10;100265.00;;;;4839163;29;21095;-82
2022/03/05 04:30:36;;;;;;;0.00;0.00;;;;;22.10;100250.00;;;;4856041;29;20513;-81
2022/03/05 04:33:05;;;;;;;0.00;0.00;;;;;22.00;100255.00;;;;4856058;29;20049;-83
2022/03/05 04:35:35;;;;;;;0.00;0.00;;;;;22.00;100258.00;;;;4855858;29;20114;-80
2022/03/05 04:38:05;;;;;;;0.00;0.00;;;;;22.00;100257.00;;;;4854514;29;20132;-82
2022/03/05 04:40:35;;;;;;;0.00;0.00;;;;;22.00;100243.00;;;;4855074;29;20061;-81
2022/03/05 04:43:04;;;;;;;0.00;0.00;;;;;22.00;100237.00;;;;4855788;29;20592;-81
2022/03/05 04:45:34;;;;;;;0.00;0.00;;;;;22.00;100248.00;;;;4855545;29;20049;-80
2022/03/05 04:48:04;;;;;;;0.00;0.00;;;;;22.00;100251.00;;;;4855857;29;20588;-80
2022/03/05 04:50:35;;;;;;;0.00;0.00;;;;;22.10;100246.00;;;;4855306;29;20071;-83
2022/03/05 04:53:04;;;;;;;0.00;0.00;;;;;22.10;100231.00;;;;4854776;29;20060;-82
2022/03/05 04:55:34;;;;;;;0.00;0.00;;;;;22.10;100246.00;;;;4854930;29;20425;-79
2022/03/05 04:58:03;;;;;;;0.00;0.00;;;;;22.10;100229.00;;;;4838063;29;20076;-82
2022/03/05 05:00:33;;;;;;;0.00;0.00;;;;;22.10;100232.00;;;;4855283;29;20757;-81
2022/03/05 05:03:02;;;;;;;0.00;0.00;;;;;22.20;100219.00;;;;4855728;29;20049;-78
2022/03/05 05:05:32;;;;;;;0.00;0.00;;;;;22.20;100238.00;;;;4854709;29;20072;-81
2022/03/05 05:08:02;;;;;;;0.00;0.00;;;;;22.20;100226.00;;;;4855156;29;20057;-82
2022/03/05 05:10:31;;;;;;;0.00;0.00;;;;;22.10;100217.00;;;;4855221;29;20592;-82
2022/03/05 05:13:00;;;;;;;0.00;0.00;;;;;22.10;100217.00;;;;4855699;29;20058;-79
2022/03/05 05:15:30;;;;;;;0.00;0.00;;;;;22.10;100189.00;;;;4855602;29;20057;-80
2022/03/05 05:18:00;;;;;;;0.00;0.00;;;;;22.10;100200.00;;;;4854528;29;20803;-80
2022/03/05 05:20:30;;;;;;;0.00;0.00;;;;;22.20;100177.00;;;;4854795;29;20061;-78
2022/03/05 05:22:59;;;;;;;0.00;0.00;;;;;22.20;100185.00;;;;4855135;29;20052;-80
2022/03/05 05:25:29;;;;;;;0.00;0.00;;;;;22.10;100198.00;;;;4855432;29;20045;-79
2022/03/05 05:27:58;;;;;;;0.00;0.00;;;;;22.10;100184.00;;;;4838490;29;20548;-81
2022/03/05 05:30:28;;;;;;;0.00;0.00;;;;;22.10;100178.00;;;;4838068;29;20082;-81
2022/03/05 05:32:58;;;;;;;0.00;0.00;;;;;22.20;100175.00;;;;4854982;29;20053;-78
2022/03/05 05:35:28;;;;;;;0.00;0.00;;;;;22.20;100187.00;;;;4854263;29;20062;-81
2022/03/05 05:37:57;;;;;;;0.00;0.00;;;;;22.20;100184.00;;;;4854687;29;20474;-81
2022/03/05 05:40:27;;;;;;;0.00;0.00;;;;;22.10;100184.00;;;;4854905;29;20072;-81
2022/03/05 05:42:56;;;;;;;0.00;0.00;;;;;22.10;100163.00;;;;4854251;29;20060;-81
2022/03/05 05:45:26;;;;;;;0.00;0.00;;;;;22.10;100174.00;;;;4855134;29;20049;-79
2022/03/05 05:47:55;;;;;;;0.00;0.00;;;;;22.10;100168.00;;;;4854371;29;20979;-78
2022/03/05 05:50:25;;;;;;;0.00;0.00;;;;;22.00;100189.00;;;;4854213;29;20445;-78
2022/03/05 05:52:54;;;;;;;0.00;0.00;;;;;22.00;100168.00;;;;4854261;29;20064;-80
2022/03/05 05:55:24;;;;;;;0.00;0.00;;;;;21.90;100179.00;;;;4854096;29;20065;-79
2022/03/05 05:57:54;;;;;;;;;;;;;21.90;100179.00;;;;4854572;29;20466;-77
2022/03/05 06:00:24;;;;;;;0.32;0.22;;;;;21.90;100161.00;;;;4854253;29;19932;-80
2022/03/05 06:02:53;;;;;;;0.00;0.00;;;;;21.80;100180.00;;;;4854362;29;20602;-82
2022/03/05 06:05:22;;;;;;;0.00;0.00;;;;;21.80;100166.00;;;;4854389;29;20053;-81
2022/03/05 06:07:52;;;;;;;0.00;0.00;;;;;21.70;100176.00;;;;4854407;29;20422;-81
2022/03/05 06:10:21;;;;;;;0.00;0.00;;;;;21.80;100162.00;;;;4854536;29;20508;-78
2022/03/05 06:12:50;;;;;;;0.00;0.00;;;;;21.70;100152.00;;;;4854601;29;20739;-79
2022/03/05 06:15:20;;;;;;;0.00;0.00;;;;;21.70;100149.00;;;;4854531;29;20049;-81
2022/03/05 06:17:50;;;;;;;0.00;0.00;;;;;21.70;100141.00;;;;4854269;29;20060;-81
2022/03/05 06:20:19;;;;;;;0.00;0.00;;;;;21.80;100144.00;;;;4853687;29;20069;-80
2022/03/05 06:22:48;;;;;;;0.45;0.40;;;;;21.70;100162.00;;;;4854256;29;20061;-80
2022/03/05 06:25:19;;;;;;;0.00;0.00;;;;;21.70;100151.00;;;;4854250;29;20053;-82
2022/03/05 06:27:48;;;;;;;0.00;0.00;;;;;21.70;100149.00;;;;4854155;29;20045;-80
2022/03/05 06:30:18;;;;;;;0.00;0.00;;;;;21.70;100162.00;;;;4853811;29;20049;-79
2022/03/05 06:32:47;;;;;;;0.00;0.00;;;;;21.70;100165.00;;;;4854058;29;20565;-80
2022/03/05 06:35:17;;;;;;;0.00;0.00;;;;;21.60;100161.00;;;;4853681;29;20569;-80
2022/03/05 06:37:46;;;;;;;0.00;0.00;;;;;21.60;100163.00;;;;4853951;29;20793;-79
2022/03/05 06:40:16;;;;;;;0.00;0.00;;;;;21.60;100152.00;;;;4853888;29;20046;-81
2022/03/05 06:42:45;;;;;;;0.13;0.13;;;;;21.70;100151.00;;;;4854131;29;20050;-77
2022/03/05 06:45:14;;;;;;;0.00;0.00;;;;;21.70;100143.00;;;;4853644;29;20058;-81
2022/03/05 06:47:44;;;;;;;0.00;0.00;;;;;21.70;100142.00;;;;4853293;29;20136;-79
2022/03/05 06:50:14;;;;;;;0.00;0.00;;;;;21.60;100159.00;;;;4853639;29;20064;-78
2022/03/05 06:52:43;;;;;;;0.00;0.00;;;;;21.60;100161.00;;;;4853738;29;20097;-79
2022/03/05 06:55:14;;;;;;;0.00;0.00;;;;;21.50;100148.00;;;;4853782;29;20049;-80
2022/03/05 06:57:45;;;;;;;0.00;0.00;;;;;21.60;100161.00;;;;4854000;29;20046;-81
2022/03/05 07:00:15;;;;;;;0.00;0.00;;;;;21.60;100154.00;;;;4855789;29;20597;-79
2022/03/05 07:02:44;;;;;;;0.00;0.00;;;;;21.60;100157.00;;;;4841187;29;20061;-79
2022/03/05 07:05:15;;;;;;;0.00;0.00;;;;;21.70;100163.00;;;;4840557;29;20097;-78
2022/03/05 07:07:44;;;;;;;0.00;0.00;;;;;21.60;100151.00;;;;4856991;29;20082;-81
2022/03/05 07:10:14;;;;;;;0.00;0.00;;;;;21.60;100156.00;;;;4857419;29;20132;-82
2022/03/05 07:12:43;;;;;;;0.00;0.00;;;;;21.60;100152.00;;;;4856545;29;20045;-80
2022/03/05 07:15:12;;;;;;;0.00;0.00;;;;;21.60;100145.00;;;;4857199;29;20057;-79
2022/03/05 07:17:50;;;;;;;0.00;0.00;;;;;21.60;100137.00;;;;4857311;29;20744;-78
2022/03/05 07:20:21;;;;;;;0.00;0.00;;;;;21.50;100141.00;;;;4840975;29;20061;-79
2022/03/05 07:22:50;;;;;;;0.00;0.00;;;;;21.50;100153.00;;;;4857003;29;20045;-79
2022/03/05 07:25:20;;;;;;;0.00;0.00;;;;;21.50;100130.00;;;;4856451;29;20053;-80
2022/03/05 07:27:49;;;;;;;0.00;0.00;;;;;21.50;100136.00;;;;4856384;29;20050;-79
2022/03/05 07:30:19;;;;;;;0.00;0.00;;;;;21.50;100126.00;;;;4856228;29;20053;-81
2022/03/05 07:32:48;;;;;;;0.00;0.00;;;;;21.50;100123.00;;;;4856702;29;20046;-80
2022/03/05 07:35:17;;;;;;;0.00;0.00;;;;;21.50;100116.00;;;;4856122;29;20069;-78
2022/03/05 07:37:47;;;;;;;0.00;0.00;;;;;21.40;100130.00;;;;4856405;29;20049;-81
2022/03/05 07:40:19;;;;;;;0.00;0.00;;;;;21.40;100116.00;;;;4840185;29;20053;-79
2022/03/05 07:42:48;;;;;;;0.00;0.00;;;;;21.40;100119.00;;;;4857324;29;20080;-81
2022/03/05 07:45:18;;;;;;;0.00;0.00;;;;;21.30;100116.00;;;;4856585;29;20080;-80
2022/03/05 07:47:48;;;;;;;0.00;0.00;;;;;21.30;100122.00;;;;4825007;29;20081;-80
2022/03/05 07:50:18;;;;;;;0.00;0.00;;;;;21.30;100109.00;;;;4856226;29;20041;-80
2022/03/05 07:52:47;;;;;;;0.00;0.00;;;;;21.20;100113.00;;;;4839490;29;20528;-79
2022/03/05 07:55:16;;;;;;;0.00;0.00;;;;;21.20;100106.00;;;;4856217;29;20106;-78
2022/03/05 07:57:46;;;;;;;0.00;0.00;;;;;21.20;100136.00;;;;4840013;29;20511;-79
2022/03/05 08:00:16;;;;;;;0.00;0.00;;;;;21.20;100110.00;;;;4839514;29;20072;-82
2022/03/05 08:02:51;;;;;;;0.00;0.00;;;;;21.20;100128.00;;;;4856504;29;20052;-80
2022/03/05 08:05:21;;;;;;;0.00;0.00;;;;;21.10;100116.00;;;;4856945;29;20049;-80
2022/03/05 08:07:52;;;;;;;0.00;0.00;;;;;21.00;100124.00;;;;4840148;29;20558;-80
2022/03/05 08:10:22;;;;;;;0.00;0.00;;;;;21.00;100125.00;;;;4856459;29;20045;-80
2022/03/05 08:12:52;;;;;;;0.00;0.00;;;;;20.90;100117.00;;;;4855272;29;20057;-77
2022/03/05 08:15:21;;;;;;;0.00;0.00;;;;;20.90;100138.00;;;;4855935;29;20053;-81
2022/03/05 08:17:58;;;;;;;0.00;0.00;;;;;20.90;100128.00;;;;4855446;29;20041;-79
2022/03/05 08:20:30;;;;;;;0.00;0.00;;;;;20.90;100132.00;;;;4855851;29;20084;-81
2022/03/05 08:23:00;;;;;;;0.00;0.00;;;;;20.90;100124.00;;;;4855568;29;20061;-79
2022/03/05 08:25:30;;;;;;;0.00;0.00;;;;;20.80;100117.00;;;;4839082;29;20065;-79
2022/03/05 08:28:00;;;;;;;0.00;0.00;;;;;20.80;100121.00;;;;4855544;29;20056;-79
2022/03/05 08:30:29;;;;;;;0.00;0.00;;;;;20.80;100118.00;;;;4856002;29;20399;-79
2022/03/05 08:32:59;;;;;;;0.00;0.00;;;;;20.80;100114.00;;;;4855632;29;20140;-81
2022/03/05 08:35:28;;;;;;;0.00;0.00;;;;;20.70;100104.00;;;;4855786;29;20144;-80
2022/03/05 08:38:02;;;;;;;0.00;0.00;;;;;20.60;100116.00;;;;4855308;29;20050;-81
2022/03/05 08:40:31;;;;;;;0.00;0.00;;;;;20.70;100109.00;;;;4855310;29;20057;-81
2022/03/05 08:43:01;;;;;;;0.00;0.00;;;;;20.70;100108.00;;;;4855475;29;20470;-79
2022/03/05 08:45:31;;;;;;;0.00;0.00;;;;;20.70;100098.00;;;;4855550;29;21094;-79
2022/03/05 08:48:00;;;;;;;0.00;0.00;;;;;20.70;100107.00;;;;4855681;29;20049;-80
2022/03/05 08:50:30;;;;;;;0.00;0.00;;;;;20.70;100112.00;;;;4855182;29;20045;-80
2022/03/05 08:52:59;;;;;;;0.00;0.00;;;;;20.70;100120.00;;;;4855308;29;20061;-80
2022/03/05 08:55:29;;;;;;;0.00;0.00;;;;;20.60;100106.00;;;;4855207;29;20053;-79
2022/03/05 08:57:58;;;;;;;0.00;0.00;;;;;20.60;100129.00;;;;4838455;29;20140;-77
2022/03/05 09:00:28;;;;;;;0.00;0.00;;;;;20.60;100104.00;;;;4838835;29;20462;-79
2022/03/05 09:02:58;;;;;;;0.00;0.00;;;;;20.60;100101.00;;;;4854410;29;20050;-79
2022/03/05 09:05:28;;;;;;;0.00;0.00;;;;;20.60;100114.00;;;;4855175;29;20081;-78
2022/03/05 09:07:57;;;;;;;0.00;0.00;;;;;20.60;100120.00;;;;4854503;29;20045;-81
2022/03/05 09:10:27;;;;;;;0.00;0.00;;;;;20.60;100118.00;;;;4855306;29;20502;-79
2022/03/05 09:12:57;;;;;;;0.00;0.00;;;;;20.60;100111.00;;;;4855366;29;20057;-81
2022/03/05 09:15:26;;;;;;;0.00;0.00;;;;;20.60;100114.00;;;;4854762;29;20093;-79
2022/03/05 09:17:56;;;;;;;0.00;0.00;;;;;20.50;100129.00;;;;4839090;29;20461;-79
2022/03/05 09:20:25;;;;;;;0.00;0.00;;;;;20.60;100138.00;;;;4855800;29;20061;-80
2022/03/05 09:22:55;;;;;;;0.00;0.00;;;;;20.60;100124.00;;;;4855598;29;20061;-78
2022/03/05 09:25:26;;;;;;;0.00;0.00;;;;;20.60;100144.00;;;;4854359;29;20049;-79
2022/03/05 09:27:56;;;;;;;0.00;0.00;;;;;20.60;100143.00;;;;4854413;29;20585;-80
2022/03/05 09:30:25;;;;;;;0.00;0.00;;;;;20.60;100145.00;;;;4855735;29;20057;-79
2022/03/05 09:32:54;;;;;;;0.00;0.00;;;;;20.70;100124.00;;;;4855536;29;20417;-79
2022/03/05 09:35:24;;;;;;;0.00;0.00;;;;;20.70;100139.00;;;;4855469;29;20490;-79
2022/03/05 09:37:54;;;;;;;0.00;0.00;;;;;20.80;100126.00;;;;4855447;29;20065;-79
2022/03/05 09:40:25;;;;;;;0.00;0.00;;;;;20.80;100141.00;;;;4855693;29;20058;-79
2022/03/05 09:42:55;;;;;;;0.00;0.00;;;;;20.80;100131.00;;;;4856008;29;20049;-80
2022/03/05 09:45:25;;;;;;;0.00;0.00;;;;;20.80;100132.00;;;;4854876;29;20058;-78
2022/03/05 09:47:56;;;;;;;0.00;0.00;;;;;20.90;100142.00;;;;4837957;29;20064;-79
2022/03/05 09:50:34;;;;;;;0.00;0.00;;;;;21.00;100144.00;;;;4838327;29;20101;-78
2022/03/05 09:53:04;;;;;;;0.00;0.00;;;;;21.00;100149.00;;;;4854428;29;20529;-79
2022/03/05 09:55:33;;;;;;;0.00;0.00;;;;;21.10;100151.00;;;;4854892;29;20037;-77
2022/03/05 09:58:03;;;;;;;0.00;0.00;;;;;21.20;100153.00;;;;4854784;29;20042;-78
2022/03/05 10:00:33;;;;;;;0.00;0.00;;;;;21.30;100141.00;;;;4854772;29;20398;-80
2022/03/05 10:03:06;;;;;;;0.00;0.00;;;;;21.40;100138.00;;;;4855905;29;20463;-79
2022/03/05 10:05:37;;;;;;;0.00;0.00;;;;;21.50;100143.00;;;;4855645;29;20049;-78
2022/03/05 10:08:15;;;;;;;0.00;0.00;;;;;21.70;100150.00;;;;4855776;29;20041;-78
2022/03/05 10:10:51;;;;;;;0.00;0.00;;;;;21.90;100146.00;;;;4856254;29;20109;-78
2022/03/05 10:13:32;;;;;;;0.00;0.00;;;;;22.10;100145.00;;;;4855768;29;20523;-77
2022/03/05 10:16:03;;;;;;;;;;;;;22.20;100160.00;;;;4856130;29;20041;-77
2022/03/05 10:18:38;;;;;;;0.00;0.00;;;;;22.40;100148.00;;;;4856295;29;19930;-78
2022/03/05 10:21:10;;;;;;;0.00;0.00;;;;;22.50;100146.00;;;;4837832;29;20062;-80
2022/03/05 10:23:47;;;;;;;0.00;0.00;;;;;22.60;100143.00;;;;4854647;29;20045;-79
2022/03/05 10:26:21;;;;;;;0.00;0.00;;;;;23.20;100111.00;;;;4854449;29;20589;-77
2022/03/05 10:28:51;;;;;;;0.00;0.00;;;;;25.10;100080.00;;;;4854576;29;20046;-79
2022/03/05 10:31:21;;;;;;;0.00;0.00;;;;;28.20;100024.00;;;;4854480;29;20045;-80
2022/03/05 10:33:51;;;;;;;0.00;0.00;;;;;29.30;100013.00;;;;4837679;29;20045;-80
2022/03/05 10:36:25;;;;;;;0.00;0.00;;;;;30.50;100036.00;;;;4857314;29;20078;-81
2022/03/05 10:38:59;;;;;;;3.85;1.85;;;;;31.70;99995.00;;;;4857965;29;20049;-80
2022/03/05 10:41:40;;;;;;;0.10;0.10;;;;;29.60;100087.00;;;;4857491;29;20056;-80
2022/03/05 10:44:18;;;;;;;0.00;0.00;;;;;29.50;100041.00;;;;4860254;29;20092;-78
2022/03/05 10:46:57;;;;;;;0.00;0.00;;;;;32.20;99954.00;;;;4859706;29;20675;-80
2022/03/05 10:49:38;;;;;;;0.00;0.00;;;;;34.80;99968.00;;;;4859303;29;20050;-79
2022/03/05 10:52:10;;;;;;;0.00;0.00;;;;;33.00;100029.00;;;;4859548;29;20051;-79
2022/03/05 10:54:42;;;;;;;0.00;0.00;;;;;35.00;99949.00;;;;4859512;29;20042;-80
2022/03/05 10:57:22;;;;;;;0.20;0.20;;;;;35.30;100022.00;;;;4858985;29;20074;-79
2022/03/05 10:59:55;;;;;;;0.00;0.00;;;;;33.70;99978.00;;;;4860904;29;20049;-80
2022/03/05 11:02:24;;;;;;;0.00;0.00;;;;;35.60;99944.00;;;;4860916;29;20038;-80
2022/03/05 11:04:56;;;;;;;0.00;0.00;;;;;36.20;99946.00;;;;4860646;29;20054;-80
2022/03/05 11:07:27;;;;;;;0.00;0.00;;;;;36.70;99950.00;;;;4859253;29;20536;-79
2022/03/05 11:09:58;;;;;;;0.00;0.00;;;;;36.80;99971.00;;;;4860457;29;20080;-79
2022/03/05 11:12:29;;;;;;;0.00;0.00;;;;;37.00;99977.00;;;;4860563;29;20591;-79
2022/03/05 11:15:00;;;;;;;0.00;0.00;;;;;37.00;99989.00;;;;4859914;29;20046;-80
2022/03/05 11:17:29;;;;;;;0.00;0.00;;;;;37.30;99985.00;;;;4858824;29;20467;-80
2022/03/05 11:19:59;;;;;;;0.00;0.00;;;;;37.40;100010.00;;;;4856838;29;20412;-79
2022/03/05 11:22:29;;;;;;;0.00;0.00;;;;;37.50;100002.00;;;;4858701;29;20057;-79
2022/03/05 11:24:58;;;;;;;0.00;0.00;;;;;37.50;100009.00;;;;4857871;29;20053;-79
2022/03/05 11:27:30;;;;;;;0.00;0.00;;;;;38.00;100020.00;;;;4857847;29;20429;-79
2022/03/05 11:30:05;;;;;;;0.05;0.05;;;;;38.80;100017.00;;;;4861255;29;20053;-78
2022/03/05 11:32:37;;;;;;;0.00;0.00;;;;;37.30;100057.00;;;;4859175;29;20102;-79
2022/03/05 11:35:25;;;;;;;0.00;0.00;;;;;37.00;100044.00;;;;4856989;29;20079;-81
2022/03/05 11:37:55;;;;;;;0.30;0.10;;;;;38.50;100025.00;;;;4840102;29;20072;-81
2022/03/05 11:40:35;;;;;;;0.00;0.00;;;;;39.30;100025.00;;;;4857680;29;20049;-81
2022/03/05 11:43:21;;;;;;;0.00;0.00;;;;;38.70;100097.00;;;;4858604;29;20065;-80
2022/03/05 11:46:03;;;;;;;0.00;0.00;;;;;33.70;100126.00;;;;4857946;29;20049;-78
2022/03/05 11:48:36;;;;;;;0.00;0.00;;;;;32.80;100140.00;;;;4858017;29;20105;-79
2022/03/05 11:51:14;;;;;;;0.00;0.00;;;;;31.90;100146.00;;;;4858388;29;20141;-78
2022/03/05 11:53:44;;;;;;;0.00;0.00;;;;;31.40;100135.00;;;;4857287;29;20398;-79
2022/03/05 11:56:23;;;;;;;0.00;0.00;;;;;33.10;100122.00;;;;4858303;29;20434;-79
2022/03/05 11:58:53;;;;;;;0.00;0.00;;;;;37.80;100050.00;;;;4857963;29;20045;-80
2022/03/05 12:01:32;;;;;;;0.20;0.00;;;;;39.30;100052.00;;;;4858660;29;20573;-79
2022/03/05 12:04:22;;;;;;;0.00;0.00;;;;;39.40;100048.00;;;;4857879;29;20061;-79
2022/03/05 12:06:55;;;;;;;0.00;0.00;;;;;39.20;100037.00;;;;4857615;29;20228;-79
2022/03/05 12:09:40;;;;;;;0.10;0.10;;;;;38.70;100046.00;;;;4857088;29;20065;-79
2022/03/05 12:12:17;;;;;;;0.08;0.08;;;;;38.30;100046.00;;;;4858002;29;20124;-79
2022/03/05 12:14:56;;;;;;;0.00;0.00;;;;;38.40;100044.00;;;;4857432;29;20072;-79
2022/03/05 12:17:31;;;;;;;0.10;0.10;;;;;38.30;100060.00;;;;4857645;29;20060;-79
2022/03/05 12:20:04;;;;;;;0.03;0.03;;;;;37.80;100057.00;;;;4856822;29;20065;-79
2022/03/05 12:22:34;;;;;;;0.00;0.00;;;;;37.70;100063.00;;;;4858130;29;20133;-79
2022/03/05 12:25:03;;;;;;;1.15;0.43;;;;;37.90;100073.00;;;;4856973;29;20046;-79
2022/03/05 12:27:34;;;;;;;0.00;0.00;;;;;37.70;100101.00;;;;4840317;29;20073;-80
2022/03/05 12:30:05;;;;;;;0.00;0.00;;;;;37.90;100105.00;;;;4855810;29;20129;-80